createdAt,value
2018-03-01T00:00:50.752Z,-7.38
2018-03-01T00:03:19.659Z,-7.44
2018-03-01T00:05:49.042Z,-7.42
2018-03-01T00:08:18.475Z,-7.47
2018-03-01T00:10:49.160Z,-7.58
2018-03-01T00:13:20.767Z,-7.51
2018-03-01T00:15:51.354Z,-7.53
2018-03-01T00:18:22.673Z,-7.56
2018-03-01T00:20:53.116Z,-7.59
2018-03-01T00:23:23.952Z,-7.62
2018-03-01T00:25:54.284Z,-7.65
2018-03-01T00:28:25.777Z,-7.67
2018-03-01T00:30:56.023Z,-7.70
2018-03-01T00:33:25.661Z,-7.73
2018-03-01T00:35:58.333Z,-7.74
2018-03-01T00:38:29.076Z,-7.80
2018-03-01T00:41:00.703Z,-7.83
2018-03-01T00:43:29.932Z,-7.83
2018-03-01T00:46:02.072Z,-7.85
2018-03-01T00:48:32.245Z,-7.91
2018-03-01T00:51:02.587Z,-7.96
2018-03-01T00:53:33.115Z,-7.96
2018-03-01T00:56:03.558Z,-7.99
2018-03-01T00:58:36.629Z,-8.01
2018-03-01T01:01:08.452Z,-8.03
2018-03-01T01:03:40.247Z,-8.05
2018-03-01T01:06:09.579Z,-8.09
2018-03-01T01:08:41.090Z,-8.20
2018-03-01T01:11:12.191Z,-8.15
2018-03-01T01:13:41.876Z,-8.18
2018-03-01T01:16:14.245Z,-8.20
2018-03-01T01:18:44.815Z,-8.21
2018-03-01T01:21:14.475Z,-8.22
2018-03-01T01:23:44.754Z,-8.27
2018-03-01T01:26:16.024Z,-8.34
2018-03-01T01:28:45.698Z,-8.33
2018-03-01T01:31:16.081Z,-8.33
2018-03-01T01:33:47.127Z,-8.34
2018-03-01T01:36:19.485Z,-8.38
2018-03-01T01:38:50.356Z,-8.40
2018-03-01T01:41:20.979Z,-8.42
2018-03-01T01:43:52.494Z,-8.45
2018-03-01T01:46:22.389Z,-8.43
2018-03-01T01:48:52.744Z,-8.49
2018-03-01T01:51:22.831Z,-8.50
2018-03-01T01:53:54.780Z,-8.50
2018-03-01T01:56:28.109Z,-8.50
2018-03-01T01:58:57.476Z,-8.51
2018-03-01T02:01:29.237Z,-8.52
2018-03-01T02:03:58.656Z,-8.54
2018-03-01T02:06:30.363Z,-8.56
2018-03-01T02:09:01.267Z,-8.61
2018-03-01T02:11:30.687Z,-8.63
2018-03-01T02:14:02.425Z,-8.64
2018-03-01T02:16:32.920Z,-8.67
2018-03-01T02:19:03.667Z,-8.73
2018-03-01T02:21:33.332Z,-8.75
2018-03-01T02:24:04.371Z,-8.76
2018-03-01T02:26:37.296Z,-8.76
2018-03-01T02:29:07.232Z,-8.76
2018-03-01T02:31:37.943Z,-8.78
2018-03-01T02:34:07.968Z,-8.80
2018-03-01T02:36:39.472Z,-8.82
2018-03-01T02:39:10.487Z,-8.83
2018-03-01T02:41:39.711Z,-8.87
2018-03-01T02:44:11.443Z,-8.89
2018-03-01T02:46:42.645Z,-8.90
2018-03-01T02:49:13.578Z,-8.91
2018-03-01T02:51:43.117Z,-8.94
2018-03-01T02:54:17.414Z,-8.97
2018-03-01T02:56:48.850Z,-8.97
2018-03-01T02:59:20.311Z,-8.98
2018-03-01T03:01:51.159Z,-9.01
2018-03-01T03:04:23.388Z,-9.01
2018-03-01T03:06:53.908Z,-9.05
2018-03-01T03:09:23.879Z,-9.08
2018-03-01T03:12:01.051Z,-9.08
2018-03-01T03:14:30.622Z,-9.13
2018-03-01T03:17:01.673Z,-9.15
2018-03-01T03:19:30.759Z,-9.20
2018-03-01T03:22:00.856Z,-9.24
2018-03-01T03:24:30.395Z,-9.26
2018-03-01T03:27:01.469Z,-9.42
2018-03-01T03:29:33.251Z,-9.27
2018-03-01T03:32:04.259Z,-9.28
2018-03-01T03:34:34.348Z,-9.30
2018-03-01T03:37:03.711Z,-9.44
2018-03-01T03:39:33.837Z,-9.42
2018-03-01T03:42:05.292Z,-9.38
2018-03-01T03:44:36.670Z,-9.42
2018-03-01T03:47:09.796Z,-9.51
2018-03-01T03:49:39.296Z,-9.51
2018-03-01T03:52:08.716Z,-9.53
2018-03-01T03:54:38.669Z,-9.54
2018-03-01T03:57:09.740Z,-9.60
2018-03-01T03:59:40.738Z,-9.49
2018-03-01T04:02:10.583Z,-9.49
2018-03-01T04:04:41.291Z,-9.48
2018-03-01T04:07:12.822Z,-9.48
2018-03-01T04:09:43.380Z,-9.56
2018-03-01T04:12:14.314Z,-9.54
2018-03-01T04:14:45.515Z,-9.56
2018-03-01T04:17:15.373Z,-9.63
2018-03-01T04:19:46.990Z,-9.61
2018-03-01T04:22:20.841Z,-9.63
2018-03-01T04:24:50.848Z,-9.64
2018-03-01T04:27:21.373Z,-9.64
2018-03-01T04:29:51.597Z,-9.70
2018-03-01T04:32:24.358Z,-9.67
2018-03-01T04:34:53.750Z,-9.70
2018-03-01T04:37:25.765Z,-9.75
2018-03-01T04:39:54.911Z,-9.77
2018-03-01T04:42:26.612Z,-9.74
2018-03-01T04:44:57.075Z,-9.72
2018-03-01T04:47:28.121Z,-9.73
2018-03-01T04:49:59.105Z,-9.76
2018-03-01T04:52:29.514Z,-9.79
2018-03-01T04:55:00.433Z,-9.77
2018-03-01T04:57:31.192Z,-9.88
2018-03-01T05:00:02.260Z,-9.88
2018-03-01T05:02:36.706Z,-9.87
2018-03-01T05:05:06.440Z,-9.91
2018-03-01T05:07:36.110Z,-9.95
2018-03-01T05:10:07.660Z,-9.97
2018-03-01T05:12:38.064Z,-10.02
2018-03-01T05:15:09.104Z,-10.01
2018-03-01T05:17:39.627Z,-10.02
2018-03-01T05:20:10.051Z,-10.01
2018-03-01T05:22:40.895Z,-10.06
2018-03-01T05:25:11.663Z,-10.05
2018-03-01T05:27:43.660Z,-10.05
2018-03-01T05:30:14.538Z,-10.03
2018-03-01T05:32:45.147Z,-10.08
2018-03-01T05:35:15.727Z,-10.06
2018-03-01T05:37:47.222Z,-10.07
2018-03-01T05:40:18.531Z,-10.15
2018-03-01T05:42:49.169Z,-10.11
2018-03-01T05:45:20.874Z,-10.11
2018-03-01T05:47:52.511Z,-10.14
2018-03-01T05:50:21.950Z,-10.21
2018-03-01T05:52:53.829Z,-10.25
2018-03-01T05:55:26.610Z,-10.23
2018-03-01T05:57:55.791Z,-10.16
2018-03-01T06:00:25.624Z,-10.23
2018-03-01T06:02:55.364Z,-10.27
2018-03-01T06:05:29.003Z,-10.30
2018-03-01T06:07:58.755Z,-10.25
2018-03-01T06:10:29.073Z,-10.17
2018-03-01T06:13:00.408Z,-10.15
2018-03-01T06:15:30.501Z,-10.09
2018-03-01T06:18:01.226Z,-10.06
2018-03-01T06:20:34.004Z,-10.02
2018-03-01T06:23:05.502Z,-9.92
2018-03-01T06:25:37.491Z,-9.86
2018-03-01T06:28:09.085Z,-9.89
2018-03-01T06:30:38.667Z,-9.90
2018-03-01T06:33:08.379Z,-9.90
2018-03-01T06:35:40.764Z,-9.88
2018-03-01T06:38:09.889Z,-9.87
2018-03-01T06:40:41.150Z,-9.84
2018-03-01T06:43:11.798Z,-9.96
2018-03-01T06:45:43.945Z,-9.94
2018-03-01T06:48:13.623Z,-9.83
2018-03-01T06:50:45.410Z,-9.76
2018-03-01T06:53:17.837Z,-9.76
2018-03-01T06:55:47.048Z,-9.72
2018-03-01T06:58:18.959Z,-9.74
2018-03-01T07:00:50.226Z,-9.76
2018-03-01T07:03:19.603Z,-9.71
2018-03-01T07:05:50.367Z,-9.62
2018-03-01T07:08:21.725Z,-9.55
2018-03-01T07:10:52.305Z,-9.48
2018-03-01T07:13:22.723Z,-9.35
2018-03-01T07:15:54.439Z,-9.33
2018-03-01T07:18:25.276Z,-9.29
2018-03-01T07:20:55.724Z,-9.23
2018-03-01T07:23:25.255Z,-9.25
2018-03-01T07:25:56.898Z,-9.18
2018-03-01T07:28:27.366Z,-9.12
2018-03-01T07:30:58.026Z,-9.11
2018-03-01T07:33:28.871Z,-9.05
2018-03-01T07:36:00.046Z,-9.07
2018-03-01T07:38:30.404Z,-9.10
2018-03-01T07:41:01.092Z,-9.08
2018-03-01T07:43:32.323Z,-8.99
2018-03-01T07:46:03.505Z,-8.91
2018-03-01T07:48:35.037Z,-8.79
2018-03-01T07:51:04.634Z,-8.69
2018-03-01T07:53:33.963Z,-8.58
2018-03-01T07:56:04.759Z,-8.49
2018-03-01T07:58:36.858Z,-8.46
2018-03-01T08:01:07.400Z,-8.52
2018-03-01T08:03:39.920Z,-8.46
2018-03-01T08:06:09.559Z,-8.40
2018-03-01T08:08:40.705Z,-8.32
2018-03-01T08:11:11.243Z,-8.37
2018-03-01T08:13:40.972Z,-8.24
2018-03-01T08:16:11.588Z,-8.18
2018-03-01T08:18:41.399Z,-8.20
2018-03-01T08:21:12.410Z,-8.15
2018-03-01T08:23:43.352Z,-8.09
2018-03-01T08:26:14.433Z,-7.97
2018-03-01T08:28:44.356Z,-7.87
2018-03-01T08:31:13.703Z,-7.87
2018-03-01T08:33:43.293Z,-7.75
2018-03-01T08:36:12.544Z,-7.55
2018-03-01T08:38:41.811Z,-7.35
2018-03-01T08:41:10.948Z,-7.17
2018-03-01T08:43:39.996Z,-7.06
2018-03-01T08:46:09.079Z,-6.93
2018-03-01T08:48:38.342Z,-6.87
2018-03-01T08:51:07.111Z,-6.82
2018-03-01T08:53:36.196Z,-6.75
2018-03-01T08:56:05.233Z,-6.69
2018-03-01T08:58:34.158Z,-6.64
2018-03-01T09:01:03.713Z,-6.60
2018-03-01T09:03:32.827Z,-6.52
2018-03-01T09:06:01.830Z,-6.54
2018-03-01T09:08:30.911Z,-6.44
2018-03-01T09:11:00.322Z,-6.32
2018-03-01T09:13:29.330Z,-6.27
2018-03-01T09:15:58.610Z,-6.17
2018-03-01T09:18:27.571Z,-6.12
2018-03-01T09:20:57.044Z,-6.05
2018-03-01T09:23:26.313Z,-6.00
2018-03-01T09:25:55.202Z,-5.95
2018-03-01T09:28:23.982Z,-5.88
2018-03-01T09:30:53.599Z,-5.94
2018-03-01T09:33:23.339Z,-5.91
2018-03-01T09:35:52.679Z,-5.87
2018-03-01T09:38:21.820Z,-5.89
2018-03-01T09:40:50.931Z,-5.90
2018-03-01T09:43:19.819Z,-5.88
2018-03-01T09:45:48.822Z,-5.89
2018-03-01T09:48:18.028Z,-5.80
2018-03-01T09:50:46.834Z,-5.77
2018-03-01T09:53:15.749Z,-5.82
2018-03-01T09:55:45.214Z,-5.83
2018-03-01T09:58:14.400Z,-5.76
2018-03-01T10:00:43.402Z,-5.57
2018-03-01T10:03:12.393Z,-5.57
2018-03-01T10:05:41.248Z,-5.48
2018-03-01T10:08:10.216Z,-5.48
2018-03-01T10:10:39.155Z,-5.47
2018-03-01T10:13:07.947Z,-5.54
2018-03-01T10:15:36.743Z,-5.46
2018-03-01T10:18:05.789Z,-5.35
2018-03-01T10:20:34.892Z,-5.36
2018-03-01T10:23:03.872Z,-5.18
2018-03-01T10:25:32.781Z,-5.01
2018-03-01T10:28:01.974Z,-4.87
2018-03-01T10:30:30.808Z,-4.71
2018-03-01T10:32:59.849Z,-4.57
2018-03-01T10:35:28.904Z,-4.45
2018-03-01T10:37:57.692Z,-4.35
2018-03-01T10:40:26.732Z,-4.23
2018-03-01T10:42:55.760Z,-4.31
2018-03-01T10:45:24.960Z,-4.42
2018-03-01T10:47:54.134Z,-4.37
2018-03-01T10:50:22.971Z,-4.38
2018-03-01T10:52:51.861Z,-4.39
2018-03-01T10:55:20.716Z,-4.35
2018-03-01T10:57:50.079Z,-4.24
2018-03-01T11:00:24.465Z,-4.32
2018-03-01T11:02:53.635Z,-4.28
2018-03-01T11:05:22.606Z,-4.30
2018-03-01T11:07:51.743Z,-4.45
2018-03-01T11:10:20.764Z,-4.30
2018-03-01T11:12:49.791Z,-4.25
2018-03-01T11:15:18.795Z,-4.24
2018-03-01T11:17:47.610Z,-4.12
2018-03-01T11:20:16.557Z,-4.04
2018-03-01T11:22:45.820Z,-3.98
2018-03-01T11:25:14.611Z,-3.87
2018-03-01T11:27:43.736Z,-3.68
2018-03-01T11:30:12.845Z,-3.63
2018-03-01T11:32:41.939Z,-3.32
2018-03-01T11:35:10.691Z,-3.09
2018-03-01T11:37:39.865Z,-2.96
2018-03-01T11:40:09.132Z,-2.81
2018-03-01T11:42:38.255Z,-2.81
2018-03-01T11:45:07.477Z,-2.63
2018-03-01T11:47:36.607Z,-1.19
2018-03-01T11:50:05.716Z,-0.34
2018-03-01T11:52:34.872Z,-0.99
2018-03-01T11:55:04.034Z,-1.56
2018-03-01T11:57:33.655Z,-1.72
2018-03-01T12:00:04.185Z,-1.83
2018-03-01T12:02:34.385Z,-1.84
2018-03-01T12:05:06.259Z,-1.85
2018-03-01T12:07:36.068Z,-1.93
2018-03-01T12:10:06.825Z,-1.98
2018-03-01T12:12:37.432Z,-1.96
2018-03-01T12:15:08.172Z,-1.85
2018-03-01T12:17:39.638Z,-1.80
2018-03-01T12:20:10.196Z,-1.61
2018-03-01T12:22:41.532Z,-1.51
2018-03-01T12:25:12.304Z,-1.20
2018-03-01T12:27:43.133Z,-1.18
2018-03-01T12:30:13.988Z,-0.79
2018-03-01T12:32:44.608Z,-0.71
2018-03-01T12:35:15.380Z,-0.74
2018-03-01T12:37:46.195Z,-1.03
2018-03-01T12:40:17.158Z,-0.58
2018-03-01T12:42:48.613Z,-0.42
2018-03-01T12:45:20.005Z,-0.29
2018-03-01T12:47:50.862Z,-0.08
2018-03-01T12:50:21.686Z,0.30
2018-03-01T12:52:52.426Z,-0.09
2018-03-01T12:55:23.804Z,0.29
2018-03-01T12:57:54.521Z,0.31
2018-03-01T13:00:24.992Z,0.48
2018-03-01T13:02:56.225Z,0.63
2018-03-01T13:05:27.727Z,0.59
2018-03-01T13:07:58.709Z,0.68
2018-03-01T13:10:41.444Z,0.87
2018-03-01T13:13:10.503Z,1.12
2018-03-01T13:15:39.831Z,1.04
2018-03-01T13:18:09.051Z,0.93
2018-03-01T13:20:38.023Z,0.92
2018-03-01T13:23:20.534Z,1.05
2018-03-01T13:25:49.525Z,1.28
2018-03-01T13:28:18.505Z,1.28
2018-03-01T13:30:48.546Z,1.24
2018-03-01T13:36:19.545Z,1.21
2018-03-01T13:38:48.674Z,1.20
2018-03-01T13:41:17.743Z,1.45
2018-03-01T13:43:46.643Z,1.78
2018-03-01T13:46:15.631Z,1.53
2018-03-01T13:48:44.599Z,1.53
2018-03-01T13:51:13.764Z,1.42
2018-03-01T13:53:42.586Z,1.55
2018-03-01T13:56:11.525Z,1.82
2018-03-01T13:58:40.601Z,1.95
2018-03-01T14:01:09.551Z,1.73
2018-03-01T14:03:38.590Z,1.00
2018-03-01T14:06:08.439Z,1.08
2018-03-01T14:08:37.449Z,1.36
2018-03-01T14:11:06.328Z,1.64
2018-03-01T14:13:42.434Z,1.26
2018-03-01T14:16:11.504Z,1.25
2018-03-01T14:21:45.087Z,1.60
2018-03-01T14:24:16.627Z,1.62
2018-03-01T14:27:01.302Z,1.53
2018-03-01T14:29:31.003Z,1.39
2018-03-01T14:31:59.730Z,1.28
2018-03-01T14:34:28.751Z,1.05
2018-03-01T14:36:57.984Z,1.28
2018-03-01T14:39:26.772Z,1.31
2018-03-01T14:41:55.934Z,1.50
2018-03-01T14:44:25.226Z,1.06
2018-03-01T14:46:54.075Z,1.25
2018-03-01T14:49:22.908Z,1.40
2018-03-01T14:51:52.129Z,1.56
2018-03-01T14:54:21.060Z,1.05
2018-03-01T14:56:50.043Z,1.25
2018-03-01T14:59:19.123Z,1.40
2018-03-01T15:01:47.920Z,1.27
2018-03-01T15:04:18.963Z,1.22
2018-03-01T15:06:47.824Z,1.13
2018-03-01T15:09:16.707Z,1.21
2018-03-01T15:11:45.772Z,1.14
2018-03-01T15:14:14.784Z,0.97
2018-03-01T15:16:43.674Z,0.86
2018-03-01T15:19:13.256Z,0.67
2018-03-01T15:21:42.090Z,0.53
2018-03-01T15:24:10.879Z,0.37
2018-03-01T15:26:39.712Z,0.26
2018-03-01T15:29:09.433Z,0.17
2018-03-01T15:31:38.611Z,0.02
2018-03-01T15:34:07.524Z,-0.03
2018-03-01T15:36:36.648Z,-0.06
2018-03-01T15:39:05.052Z,-0.15
2018-03-01T15:41:34.268Z,-0.27
2018-03-01T15:44:04.124Z,-0.40
2018-03-01T15:46:33.940Z,-0.52
2018-03-01T15:49:03.347Z,-0.57
2018-03-01T15:51:32.506Z,-0.81
2018-03-01T15:54:01.453Z,-0.93
2018-03-01T15:56:30.617Z,-0.92
2018-03-01T15:58:59.764Z,-1.01
2018-03-01T16:01:30.468Z,-0.90
2018-03-01T16:04:00.183Z,-1.19
2018-03-01T16:06:30.931Z,-1.31
2018-03-01T16:09:00.762Z,-1.59
2018-03-01T16:11:31.412Z,-1.61
2018-03-01T16:14:02.141Z,-1.61
2018-03-01T16:16:33.514Z,-1.67
2018-03-01T16:19:04.331Z,-1.80
2018-03-01T16:21:35.702Z,-1.76
2018-03-01T16:24:06.326Z,-1.95
2018-03-01T16:26:37.430Z,-2.18
2018-03-01T16:29:08.300Z,-2.37
2018-03-01T16:31:39.230Z,-2.31
2018-03-01T16:34:15.395Z,-2.38
2018-03-01T16:36:44.571Z,-2.66
2018-03-01T16:39:13.837Z,-2.69
2018-03-01T16:41:44.511Z,-2.67
2018-03-01T16:44:14.997Z,-2.77
2018-03-01T16:46:45.971Z,-2.66
2018-03-01T16:49:17.392Z,-2.63
2018-03-01T16:51:48.041Z,-2.71
2018-03-01T16:54:18.790Z,-2.76
2018-03-01T16:56:49.832Z,-2.66
2018-03-01T16:59:21.839Z,-2.70
2018-03-01T17:01:52.453Z,-2.94
2018-03-01T17:04:23.340Z,-2.86
2018-03-01T17:06:54.889Z,-3.10
2018-03-01T17:09:24.472Z,-3.10
2018-03-01T17:11:55.025Z,-3.04
2018-03-01T17:14:26.643Z,-3.10
2018-03-01T17:16:56.108Z,-3.24
2018-03-01T17:19:26.910Z,-3.25
2018-03-01T17:21:57.882Z,-3.29
2018-03-01T17:24:28.886Z,-3.44
2018-03-01T17:26:59.884Z,-3.57
2018-03-01T17:29:30.791Z,-3.67
2018-03-01T17:32:01.407Z,-3.81
2018-03-01T17:34:31.861Z,-3.93
2018-03-01T17:37:02.490Z,-3.83
2018-03-01T17:39:33.963Z,-3.84
2018-03-01T17:42:04.955Z,-3.81
2018-03-01T17:44:35.896Z,-3.84
2018-03-01T17:47:06.677Z,-3.89
2018-03-01T17:49:37.683Z,-3.93
2018-03-01T17:52:09.543Z,-3.88
2018-03-01T17:54:39.253Z,-3.99
2018-03-01T17:57:10.595Z,-3.98
2018-03-01T17:59:41.512Z,-4.01
2018-03-01T18:02:12.165Z,-4.13
2018-03-01T18:04:42.876Z,-4.25
2018-03-01T18:07:15.939Z,-4.22
2018-03-01T18:09:45.505Z,-4.29
2018-03-01T18:12:16.115Z,-4.41
2018-03-01T18:14:46.832Z,-4.39
2018-03-01T18:17:17.821Z,-4.46
2018-03-01T18:19:48.719Z,-4.44
2018-03-01T18:22:19.642Z,-4.58
2018-03-01T18:24:50.595Z,-4.83
2018-03-01T18:27:22.831Z,-4.95
2018-03-01T18:29:53.354Z,-4.90
2018-03-01T18:32:24.047Z,-4.96
2018-03-01T18:34:55.065Z,-4.88
2018-03-01T18:37:25.737Z,-4.93
2018-03-01T18:39:56.541Z,-5.02
2018-03-01T18:42:28.080Z,-4.50
2018-03-01T18:45:00.429Z,-4.41
2018-03-01T18:47:30.858Z,-4.60
2018-03-01T18:50:02.111Z,-4.61
2018-03-01T18:52:32.843Z,-4.75
2018-03-01T18:55:03.411Z,-4.98
2018-03-01T18:57:33.796Z,-5.11
2018-03-01T19:00:04.734Z,-5.09
2018-03-01T19:02:35.598Z,-5.11
2018-03-01T19:05:06.167Z,-5.23
2018-03-01T19:07:37.800Z,-5.36
2018-03-01T19:10:08.224Z,-5.23
2018-03-01T19:12:39.284Z,-5.33
2018-03-01T19:15:10.151Z,-5.28
2018-03-01T19:17:41.011Z,-5.49
2018-03-01T19:20:10.940Z,-5.47
2018-03-01T19:22:43.437Z,-5.36
2018-03-01T19:25:14.065Z,-5.33
2018-03-01T19:27:44.982Z,-5.29
2018-03-01T19:37:17.061Z,-5.53
2018-03-01T19:39:45.892Z,-5.65
2018-03-01T19:42:14.720Z,-5.64
2018-03-01T19:44:43.841Z,-5.59
2018-03-01T19:47:12.741Z,-5.73
2018-03-01T19:49:41.808Z,-5.77
2018-03-01T19:52:10.783Z,-5.77
2018-03-01T19:54:39.789Z,-5.70
2018-03-01T19:57:08.597Z,-5.65
2018-03-01T19:59:37.867Z,-5.71
2018-03-01T20:02:06.802Z,-5.70
2018-03-01T20:04:35.823Z,-5.75
2018-03-01T20:07:04.563Z,-5.85
2018-03-01T20:09:33.780Z,-5.91
2018-03-01T20:12:02.785Z,-5.94
2018-03-01T20:14:31.830Z,-6.15
2018-03-01T20:17:01.106Z,-6.06
2018-03-01T20:19:30.128Z,-6.11
2018-03-01T20:21:59.015Z,-6.25
2018-03-01T20:24:27.861Z,-6.14
2018-03-01T20:26:56.791Z,-6.11
2018-03-01T20:29:25.921Z,-6.19
2018-03-01T20:31:54.767Z,-6.16
2018-03-01T20:34:23.815Z,-6.18
2018-03-01T20:36:52.825Z,-6.18
2018-03-01T20:39:22.480Z,-6.25
2018-03-01T20:41:51.585Z,-6.27
2018-03-01T20:44:20.768Z,-6.28
2018-03-01T20:46:49.700Z,-6.20
2018-03-01T20:49:18.724Z,-6.24
2018-03-01T20:51:47.935Z,-6.36
2018-03-01T20:54:16.855Z,-6.31
2018-03-01T20:56:45.705Z,-6.34
2018-03-01T20:59:14.931Z,-6.42
2018-03-01T21:01:43.821Z,-6.43
2018-03-01T21:04:13.651Z,-6.47
2018-03-01T21:06:42.885Z,-6.49
2018-03-01T21:09:11.823Z,-6.46
2018-03-01T21:11:41.536Z,-6.45
2018-03-01T21:14:10.569Z,-6.50
2018-03-01T21:16:39.769Z,-6.52
2018-03-01T21:19:08.621Z,-6.60
2018-03-01T21:21:37.890Z,-6.59
2018-03-01T21:24:06.751Z,-6.39
2018-03-01T21:26:35.433Z,-6.27
2018-03-01T21:29:04.402Z,-6.28
2018-03-01T21:31:33.506Z,-6.42
2018-03-01T21:34:02.620Z,-6.49
2018-03-01T21:36:31.731Z,-6.59
2018-03-01T21:39:00.643Z,-6.62
2018-03-01T21:41:29.683Z,-6.62
2018-03-01T21:43:59.311Z,-6.78
2018-03-01T21:46:28.613Z,-6.71
2018-03-01T21:48:57.684Z,-6.79
2018-03-01T21:51:27.280Z,-6.80
2018-03-01T21:53:56.136Z,-6.83
2018-03-01T21:56:24.643Z,-6.81
2018-03-01T21:58:54.446Z,-6.88
2018-03-01T22:01:23.593Z,-7.08
2018-03-01T22:03:52.991Z,-6.99
2018-03-01T22:06:22.231Z,-7.03
2018-03-01T22:08:51.360Z,-7.10
2018-03-01T22:11:20.480Z,-7.08
2018-03-01T22:13:55.637Z,-7.12
2018-03-01T22:16:24.767Z,-7.10
2018-03-01T22:18:53.890Z,-7.10
2018-03-01T22:21:23.199Z,-7.16
2018-03-01T22:23:52.419Z,-7.13
2018-03-01T22:26:21.498Z,-7.14
2018-03-01T22:28:50.654Z,-7.20
2018-03-01T22:31:19.978Z,-6.93
2018-03-01T22:33:49.777Z,-7.05
2018-03-01T22:36:21.570Z,-7.16
2018-03-01T22:38:51.321Z,-7.18
2018-03-01T22:41:22.776Z,-7.28
2018-03-01T22:43:52.768Z,-7.33
2018-03-01T22:46:23.153Z,-7.38
2018-03-01T22:48:54.143Z,-7.37
2018-03-01T22:51:25.296Z,-7.44
2018-03-01T22:53:57.582Z,-7.49
2018-03-01T22:56:28.022Z,-7.50
2018-03-01T22:58:58.841Z,-7.53
2018-03-01T23:01:30.736Z,-7.65
2018-03-01T23:04:01.345Z,-7.69
2018-03-01T23:06:33.026Z,-7.79
2018-03-01T23:09:03.238Z,-7.82
2018-03-01T23:11:33.560Z,-7.92
2018-03-01T23:14:03.563Z,-7.86
2018-03-01T23:16:32.764Z,-7.87
2018-03-01T23:19:03.436Z,-8.00
2018-03-01T23:21:34.111Z,-7.99
2018-03-01T23:24:06.584Z,-7.96
2018-03-01T23:26:38.093Z,-8.07
2018-03-01T23:29:09.152Z,-8.04
2018-03-01T23:31:40.284Z,-8.07
2018-03-01T23:34:10.631Z,-8.17
2018-03-01T23:36:41.712Z,-8.19
2018-03-01T23:39:13.290Z,-8.23
2018-03-01T23:41:44.503Z,-8.31
2018-03-01T23:44:14.952Z,-8.35
2018-03-01T23:46:46.493Z,-8.46
2018-03-01T23:49:21.343Z,-8.41
2018-03-01T23:51:53.586Z,-8.44
2018-03-01T23:54:22.857Z,-8.42
2018-03-01T23:56:51.868Z,-8.43
2018-03-01T23:59:22.440Z,-8.57
